sensor_id;sensor_type;location;lat;lon;timestamp;P1;durP1;ratioP1;P2;durP2;ratioP2
52284;SDS011;38238;53.304;6.606;2022-09-09T00:01:07;9.65;;;7.15;;
52284;SDS011;38238;53.304;6.606;2022-09-09T00:03:57;8.88;;;6.55;;
52284;SDS011;38238;53.304;6.606;2022-09-09T00:06:43;9.35;;;7.57;;
52284;SDS011;38238;53.304;6.606;2022-09-09T00:09:18;8.50;;;6.95;;
52284;SDS011;38238;53.304;6.606;2022-09-09T00:11:51;8.68;;;7.40;;
52284;SDS011;38238;53.304;6.606;2022-09-09T00:16:57;8.73;;;7.05;;
52284;SDS011;38238;53.304;6.606;2022-09-09T00:19:33;8.35;;;6.85;;
52284;SDS011;38238;53.304;6.606;2022-09-09T00:24:43;11.18;;;7.13;;
52284;SDS011;38238;53.304;6.606;2022-09-09T00:27:25;10.38;;;7.43;;
52284;SDS011;38238;53.304;6.606;2022-09-09T00:30:15;10.02;;;7.40;;
52284;SDS011;38238;53.304;6.606;2022-09-09T00:32:47;10.02;;;7.50;;
52284;SDS011;38238;53.304;6.606;2022-09-09T00:35:22;9.70;;;7.78;;
52284;SDS011;38238;53.304;6.606;2022-09-09T00:37:56;9.45;;;7.93;;
52284;SDS011;38238;53.304;6.606;2022-09-09T00:40:29;11.88;;;7.28;;
52284;SDS011;38238;53.304;6.606;2022-09-09T00:43:06;9.82;;;7.22;;
52284;SDS011;38238;53.304;6.606;2022-09-09T00:48:20;8.73;;;7.33;;
52284;SDS011;38238;53.304;6.606;2022-09-09T00:50:56;10.07;;;7.70;;
52284;SDS011;38238;53.304;6.606;2022-09-09T00:56:20;11.82;;;7.72;;
52284;SDS011;38238;53.304;6.606;2022-09-09T00:59:28;11.35;;;8.75;;
52284;SDS011;38238;53.304;6.606;2022-09-09T01:01:53;12.45;;;8.25;;
52284;SDS011;38238;53.304;6.606;2022-09-09T01:04:23;12.35;;;8.20;;
52284;SDS011;38238;53.304;6.606;2022-09-09T01:07:17;10.15;;;8.25;;
52284;SDS011;38238;53.304;6.606;2022-09-09T01:09:46;10.05;;;8.98;;
52284;SDS011;38238;53.304;6.606;2022-09-09T01:14:52;11.75;;;7.68;;
52284;SDS011;38238;53.304;6.606;2022-09-09T01:17:31;8.75;;;7.85;;
52284;SDS011;38238;53.304;6.606;2022-09-09T01:20:25;12.90;;;8.20;;
52284;SDS011;38238;53.304;6.606;2022-09-09T01:28:28;7.20;;;6.50;;
52284;SDS011;38238;53.304;6.606;2022-09-09T01:30:56;8.20;;;7.13;;
52284;SDS011;38238;53.304;6.606;2022-09-09T01:33:23;8.85;;;6.65;;
52284;SDS011;38238;53.304;6.606;2022-09-09T01:35:50;9.55;;;7.13;;
52284;SDS011;38238;53.304;6.606;2022-09-09T01:38:20;8.55;;;7.28;;
52284;SDS011;38238;53.304;6.606;2022-09-09T01:40:47;8.80;;;7.00;;
52284;SDS011;38238;53.304;6.606;2022-09-09T01:43:14;8.20;;;6.68;;
52284;SDS011;38238;53.304;6.606;2022-09-09T01:45:40;7.93;;;6.95;;
52284;SDS011;38238;53.304;6.606;2022-09-09T01:48:06;10.23;;;6.70;;
52284;SDS011;38238;53.304;6.606;2022-09-09T01:50:32;10.15;;;7.60;;
52284;SDS011;38238;53.304;6.606;2022-09-09T01:52:58;9.13;;;6.97;;
52284;SDS011;38238;53.304;6.606;2022-09-09T01:55:30;9.70;;;7.53;;
52284;SDS011;38238;53.304;6.606;2022-09-09T01:58:26;9.40;;;7.35;;
52284;SDS011;38238;53.304;6.606;2022-09-09T02:03:57;10.77;;;7.53;;
52284;SDS011;38238;53.304;6.606;2022-09-09T02:06:35;9.90;;;6.97;;
52284;SDS011;38238;53.304;6.606;2022-09-09T02:09:04;10.40;;;7.50;;
52284;SDS011;38238;53.304;6.606;2022-09-09T02:11:34;8.95;;;7.28;;
52284;SDS011;38238;53.304;6.606;2022-09-09T02:14:01;8.45;;;6.72;;
52284;SDS011;38238;53.304;6.606;2022-09-09T02:19:26;9.38;;;7.13;;
52284;SDS011;38238;53.304;6.606;2022-09-09T02:22:02;9.13;;;6.97;;
52284;SDS011;38238;53.304;6.606;2022-09-09T02:24:29;7.68;;;6.35;;
52284;SDS011;38238;53.304;6.606;2022-09-09T02:26:59;8.23;;;6.05;;
52284;SDS011;38238;53.304;6.606;2022-09-09T02:29:39;7.95;;;6.55;;
52284;SDS011;38238;53.304;6.606;2022-09-09T02:32:09;11.57;;;6.75;;
52284;SDS011;38238;53.304;6.606;2022-09-09T02:34:40;9.60;;;6.60;;
52284;SDS011;38238;53.304;6.606;2022-09-09T02:37:08;9.18;;;6.82;;
52284;SDS011;38238;53.304;6.606;2022-09-09T02:39:36;8.07;;;7.03;;
52284;SDS011;38238;53.304;6.606;2022-09-09T02:42:05;7.93;;;7.03;;
52284;SDS011;38238;53.304;6.606;2022-09-09T02:44:32;10.10;;;7.00;;
52284;SDS011;38238;53.304;6.606;2022-09-09T02:47:10;12.52;;;7.35;;
52284;SDS011;38238;53.304;6.606;2022-09-09T02:55:29;11.07;;;8.18;;
52284;SDS011;38238;53.304;6.606;2022-09-09T02:58:01;9.48;;;7.47;;
52284;SDS011;38238;53.304;6.606;2022-09-09T03:00:34;11.57;;;7.95;;
52284;SDS011;38238;53.304;6.606;2022-09-09T03:03:04;9.57;;;8.38;;
52284;SDS011;38238;53.304;6.606;2022-09-09T03:05:31;10.20;;;8.10;;
52284;SDS011;38238;53.304;6.606;2022-09-09T03:07:57;8.38;;;7.20;;
52284;SDS011;38238;53.304;6.606;2022-09-09T03:10:23;12.15;;;9.13;;
52284;SDS011;38238;53.304;6.606;2022-09-09T03:12:48;11.07;;;7.95;;
52284;SDS011;38238;53.304;6.606;2022-09-09T03:15:15;11.13;;;8.13;;
52284;SDS011;38238;53.304;6.606;2022-09-09T03:17:41;12.00;;;7.65;;
52284;SDS011;38238;53.304;6.606;2022-09-09T03:20:07;9.15;;;7.50;;
52284;SDS011;38238;53.304;6.606;2022-09-09T03:22:33;11.95;;;7.78;;
52284;SDS011;38238;53.304;6.606;2022-09-09T03:25:00;9.73;;;8.23;;
52284;SDS011;38238;53.304;6.606;2022-09-09T03:27:28;9.55;;;7.47;;
52284;SDS011;38238;53.304;6.606;2022-09-09T03:29:54;10.07;;;7.32;;
52284;SDS011;38238;53.304;6.606;2022-09-09T03:32:21;10.82;;;8.43;;
52284;SDS011;38238;53.304;6.606;2022-09-09T03:34:47;12.45;;;8.07;;
52284;SDS011;38238;53.304;6.606;2022-09-09T03:37:15;8.95;;;7.00;;
52284;SDS011;38238;53.304;6.606;2022-09-09T03:39:42;9.90;;;7.72;;
52284;SDS011;38238;53.304;6.606;2022-09-09T03:42:08;9.70;;;8.13;;
52284;SDS011;38238;53.304;6.606;2022-09-09T03:44:34;10.05;;;6.95;;
52284;SDS011;38238;53.304;6.606;2022-09-09T03:46:59;9.52;;;7.10;;
52284;SDS011;38238;53.304;6.606;2022-09-09T03:49:25;14.90;;;8.35;;
52284;SDS011;38238;53.304;6.606;2022-09-09T03:51:54;10.25;;;6.72;;
52284;SDS011;38238;53.304;6.606;2022-09-09T03:54:22;9.60;;;7.45;;
52284;SDS011;38238;53.304;6.606;2022-09-09T03:56:48;10.18;;;6.63;;
52284;SDS011;38238;53.304;6.606;2022-09-09T03:59:14;8.52;;;6.13;;
52284;SDS011;38238;53.304;6.606;2022-09-09T04:01:40;7.65;;;6.15;;
52284;SDS011;38238;53.304;6.606;2022-09-09T04:04:06;11.75;;;7.47;;
52284;SDS011;38238;53.304;6.606;2022-09-09T04:06:32;12.15;;;6.32;;
52284;SDS011;38238;53.304;6.606;2022-09-09T04:08:59;8.43;;;6.38;;
52284;SDS011;38238;53.304;6.606;2022-09-09T04:11:24;9.57;;;6.32;;
52284;SDS011;38238;53.304;6.606;2022-09-09T04:13:50;8.73;;;5.82;;
52284;SDS011;38238;53.304;6.606;2022-09-09T04:16:16;9.32;;;5.10;;
52284;SDS011;38238;53.304;6.606;2022-09-09T04:18:42;7.97;;;5.57;;
52284;SDS011;38238;53.304;6.606;2022-09-09T04:21:08;9.07;;;4.70;;
52284;SDS011;38238;53.304;6.606;2022-09-09T04:23:35;8.45;;;4.20;;
52284;SDS011;38238;53.304;6.606;2022-09-09T04:26:01;8.25;;;4.10;;
52284;SDS011;38238;53.304;6.606;2022-09-09T04:28:29;5.35;;;3.60;;
52284;SDS011;38238;53.304;6.606;2022-09-09T04:30:56;7.53;;;4.03;;
52284;SDS011;38238;53.304;6.606;2022-09-09T04:33:28;5.82;;;3.33;;
52284;SDS011;38238;53.304;6.606;2022-09-09T04:35:56;7.25;;;3.80;;
52284;SDS011;38238;53.304;6.606;2022-09-09T04:38:22;6.68;;;3.63;;
52284;SDS011;38238;53.304;6.606;2022-09-09T04:40:48;7.63;;;3.40;;
52284;SDS011;38238;53.304;6.606;2022-09-09T04:43:16;6.63;;;3.65;;
52284;SDS011;38238;53.304;6.606;2022-09-09T04:45:44;8.30;;;3.25;;
52284;SDS011;38238;53.304;6.606;2022-09-09T04:48:13;8.45;;;3.90;;
52284;SDS011;38238;53.304;6.606;2022-09-09T04:50:38;7.90;;;3.58;;
52284;SDS011;38238;53.304;6.606;2022-09-09T04:53:06;5.93;;;3.35;;
52284;SDS011;38238;53.304;6.606;2022-09-09T04:55:32;5.93;;;2.90;;
52284;SDS011;38238;53.304;6.606;2022-09-09T04:58:06;4.90;;;3.10;;
52284;SDS011;38238;53.304;6.606;2022-09-09T05:00:34;9.63;;;4.18;;
52284;SDS011;38238;53.304;6.606;2022-09-09T05:03:06;6.05;;;3.75;;
52284;SDS011;38238;53.304;6.606;2022-09-09T05:05:33;7.00;;;3.72;;
52284;SDS011;38238;53.304;6.606;2022-09-09T05:08:07;8.70;;;4.10;;
52284;SDS011;38238;53.304;6.606;2022-09-09T05:10:34;7.03;;;4.10;;
52284;SDS011;38238;53.304;6.606;2022-09-09T05:13:02;7.15;;;4.22;;
52284;SDS011;38238;53.304;6.606;2022-09-09T05:15:29;6.75;;;4.07;;
52284;SDS011;38238;53.304;6.606;2022-09-09T05:17:58;8.77;;;4.53;;
52284;SDS011;38238;53.304;6.606;2022-09-09T05:20:25;6.40;;;4.13;;
52284;SDS011;38238;53.304;6.606;2022-09-09T05:22:54;7.20;;;4.35;;
52284;SDS011;38238;53.304;6.606;2022-09-09T05:25:21;8.35;;;4.45;;
52284;SDS011;38238;53.304;6.606;2022-09-09T05:27:49;8.52;;;4.80;;
52284;SDS011;38238;53.304;6.606;2022-09-09T05:30:15;9.63;;;4.40;;
52284;SDS011;38238;53.304;6.606;2022-09-09T05:32:41;7.70;;;4.30;;
52284;SDS011;38238;53.304;6.606;2022-09-09T05:35:11;7.68;;;5.00;;
52284;SDS011;38238;53.304;6.606;2022-09-09T05:37:38;7.32;;;4.85;;
52284;SDS011;38238;53.304;6.606;2022-09-09T05:40:05;7.53;;;4.65;;
52284;SDS011;38238;53.304;6.606;2022-09-09T05:42:31;10.02;;;4.63;;
52284;SDS011;38238;53.304;6.606;2022-09-09T05:44:57;10.20;;;5.57;;
52284;SDS011;38238;53.304;6.606;2022-09-09T05:47:23;7.38;;;5.13;;
52284;SDS011;38238;53.304;6.606;2022-09-09T05:49:48;10.90;;;5.93;;
52284;SDS011;38238;53.304;6.606;2022-09-09T05:52:14;9.10;;;5.85;;
52284;SDS011;38238;53.304;6.606;2022-09-09T05:54:40;7.93;;;6.00;;
52284;SDS011;38238;53.304;6.606;2022-09-09T05:57:07;8.52;;;6.55;;
52284;SDS011;38238;53.304;6.606;2022-09-09T05:59:33;7.95;;;6.13;;
52284;SDS011;38238;53.304;6.606;2022-09-09T06:01:59;8.73;;;6.13;;
52284;SDS011;38238;53.304;6.606;2022-09-09T06:04:25;11.30;;;7.20;;
52284;SDS011;38238;53.304;6.606;2022-09-09T06:06:51;10.65;;;7.43;;
52284;SDS011;38238;53.304;6.606;2022-09-09T06:09:16;8.77;;;7.10;;
52284;SDS011;38238;53.304;6.606;2022-09-09T06:11:42;9.85;;;7.43;;
52284;SDS011;38238;53.304;6.606;2022-09-09T06:14:08;12.60;;;8.75;;
52284;SDS011;38238;53.304;6.606;2022-09-09T06:16:34;9.40;;;7.03;;
52284;SDS011;38238;53.304;6.606;2022-09-09T06:19:02;11.75;;;7.38;;
52284;SDS011;38238;53.304;6.606;2022-09-09T06:21:35;11.32;;;7.80;;
52284;SDS011;38238;53.304;6.606;2022-09-09T06:24:05;10.93;;;7.75;;
52284;SDS011;38238;53.304;6.606;2022-09-09T06:26:36;9.13;;;6.95;;
52284;SDS011;38238;53.304;6.606;2022-09-09T06:29:06;11.30;;;8.27;;
52284;SDS011;38238;53.304;6.606;2022-09-09T06:31:32;10.18;;;7.38;;
52284;SDS011;38238;53.304;6.606;2022-09-09T06:33:59;11.57;;;7.65;;
52284;SDS011;38238;53.304;6.606;2022-09-09T06:36:29;9.07;;;7.07;;
52284;SDS011;38238;53.304;6.606;2022-09-09T06:38:56;11.68;;;8.57;;
52284;SDS011;38238;53.304;6.606;2022-09-09T06:41:23;9.18;;;7.63;;
52284;SDS011;38238;53.304;6.606;2022-09-09T06:43:51;8.65;;;6.35;;
52284;SDS011;38238;53.304;6.606;2022-09-09T06:46:18;10.77;;;8.52;;
52284;SDS011;38238;53.304;6.606;2022-09-09T06:48:46;9.65;;;7.15;;
52284;SDS011;38238;53.304;6.606;2022-09-09T06:51:19;10.18;;;7.88;;
52284;SDS011;38238;53.304;6.606;2022-09-09T06:53:52;10.73;;;7.25;;
52284;SDS011;38238;53.304;6.606;2022-09-09T06:58:53;9.95;;;7.50;;
52284;SDS011;38238;53.304;6.606;2022-09-09T07:01:23;9.50;;;7.05;;
52284;SDS011;38238;53.304;6.606;2022-09-09T07:03:52;8.98;;;6.40;;
52284;SDS011;38238;53.304;6.606;2022-09-09T07:06:20;11.45;;;7.97;;
52284;SDS011;38238;53.304;6.606;2022-09-09T07:08:52;9.45;;;7.43;;
52284;SDS011;38238;53.304;6.606;2022-09-09T07:11:20;11.02;;;6.43;;
52284;SDS011;38238;53.304;6.606;2022-09-09T07:13:47;9.18;;;6.28;;
52284;SDS011;38238;53.304;6.606;2022-09-09T07:16:15;8.70;;;6.43;;
52284;SDS011;38238;53.304;6.606;2022-09-09T07:18:47;13.98;;;7.63;;
52284;SDS011;38238;53.304;6.606;2022-09-09T07:21:13;8.68;;;6.57;;
52284;SDS011;38238;53.304;6.606;2022-09-09T07:23:40;8.63;;;6.65;;
52284;SDS011;38238;53.304;6.606;2022-09-09T07:26:10;10.32;;;6.90;;
52284;SDS011;38238;53.304;6.606;2022-09-09T07:28:38;8.70;;;6.28;;
52284;SDS011;38238;53.304;6.606;2022-09-09T07:31:05;9.93;;;6.07;;
52284;SDS011;38238;53.304;6.606;2022-09-09T07:33:32;10.88;;;6.30;;
52284;SDS011;38238;53.304;6.606;2022-09-09T07:36:04;12.13;;;6.68;;
52284;SDS011;38238;53.304;6.606;2022-09-09T07:38:33;9.55;;;6.80;;
52284;SDS011;38238;53.304;6.606;2022-09-09T07:41:06;7.82;;;5.80;;
52284;SDS011;38238;53.304;6.606;2022-09-09T07:43:43;8.68;;;6.20;;
52284;SDS011;38238;53.304;6.606;2022-09-09T07:46:11;8.07;;;5.88;;
52284;SDS011;38238;53.304;6.606;2022-09-09T07:48:38;9.85;;;6.57;;
52284;SDS011;38238;53.304;6.606;2022-09-09T07:51:10;7.07;;;5.32;;
52284;SDS011;38238;53.304;6.606;2022-09-09T07:53:41;7.97;;;5.82;;
52284;SDS011;38238;53.304;6.606;2022-09-09T07:56:08;6.82;;;5.63;;
52284;SDS011;38238;53.304;6.606;2022-09-09T07:58:36;8.55;;;6.03;;
52284;SDS011;38238;53.304;6.606;2022-09-09T08:01:10;7.10;;;5.32;;
52284;SDS011;38238;53.304;6.606;2022-09-09T08:03:38;8.43;;;5.47;;
52284;SDS011;38238;53.304;6.606;2022-09-09T08:06:04;10.02;;;5.90;;
52284;SDS011;38238;53.304;6.606;2022-09-09T08:08:33;10.15;;;6.03;;
52284;SDS011;38238;53.304;6.606;2022-09-09T08:11:13;8.02;;;6.30;;
52284;SDS011;38238;53.304;6.606;2022-09-09T08:13:41;7.88;;;5.68;;
52284;SDS011;38238;53.304;6.606;2022-09-09T08:16:09;8.68;;;5.53;;
52284;SDS011;38238;53.304;6.606;2022-09-09T08:18:35;7.75;;;6.00;;
52284;SDS011;38238;53.304;6.606;2022-09-09T08:21:14;10.45;;;5.90;;
52284;SDS011;38238;53.304;6.606;2022-09-09T08:23:43;9.98;;;5.20;;
52284;SDS011;38238;53.304;6.606;2022-09-09T08:26:14;8.93;;;4.97;;
52284;SDS011;38238;53.304;6.606;2022-09-09T08:28:43;8.13;;;4.65;;
52284;SDS011;38238;53.304;6.606;2022-09-09T08:31:16;8.82;;;5.10;;
52284;SDS011;38238;53.304;6.606;2022-09-09T08:33:44;7.60;;;5.20;;
52284;SDS011;38238;53.304;6.606;2022-09-09T08:36:22;8.50;;;5.35;;
52284;SDS011;38238;53.304;6.606;2022-09-09T08:38:51;7.57;;;4.80;;
52284;SDS011;38238;53.304;6.606;2022-09-09T08:43:59;6.65;;;4.57;;
52284;SDS011;38238;53.304;6.606;2022-09-09T08:46:35;7.50;;;5.07;;
52284;SDS011;38238;53.304;6.606;2022-09-09T08:52:29;7.97;;;4.50;;
52284;SDS011;38238;53.304;6.606;2022-09-09T08:54:56;7.30;;;5.20;;
52284;SDS011;38238;53.304;6.606;2022-09-09T08:57:41;7.43;;;4.97;;
52284;SDS011;38238;53.304;6.606;2022-09-09T09:00:10;6.05;;;4.43;;
52284;SDS011;38238;53.304;6.606;2022-09-09T09:13:26;6.25;;;4.20;;
52284;SDS011;38238;53.304;6.606;2022-09-09T09:18:46;7.72;;;4.15;;
52284;SDS011;38238;53.304;6.606;2022-09-09T09:21:13;7.15;;;3.70;;
52284;SDS011;38238;53.304;6.606;2022-09-09T09:23:48;7.22;;;3.97;;
52284;SDS011;38238;53.304;6.606;2022-09-09T09:26:21;6.80;;;4.20;;
52284;SDS011;38238;53.304;6.606;2022-09-09T09:28:57;6.63;;;3.72;;
52284;SDS011;38238;53.304;6.606;2022-09-09T09:31:25;7.07;;;3.60;;
52284;SDS011;38238;53.304;6.606;2022-09-09T09:33:55;7.97;;;3.60;;
52284;SDS011;38238;53.304;6.606;2022-09-09T09:36:42;4.93;;;3.10;;
52284;SDS011;38238;53.304;6.606;2022-09-09T09:39:22;6.38;;;3.80;;
52284;SDS011;38238;53.304;6.606;2022-09-09T09:41:52;7.35;;;3.67;;
52284;SDS011;38238;53.304;6.606;2022-09-09T09:44:23;7.82;;;4.22;;
52284;SDS011;38238;53.304;6.606;2022-09-09T09:46:49;7.88;;;4.25;;
52284;SDS011;38238;53.304;6.606;2022-09-09T09:49:15;8.63;;;4.05;;
52284;SDS011;38238;53.304;6.606;2022-09-09T09:51:42;8.55;;;4.07;;
52284;SDS011;38238;53.304;6.606;2022-09-09T09:54:09;7.93;;;3.88;;
52284;SDS011;38238;53.304;6.606;2022-09-09T09:56:40;7.57;;;3.50;;
52284;SDS011;38238;53.304;6.606;2022-09-09T09:59:18;6.60;;;3.30;;
52284;SDS011;38238;53.304;6.606;2022-09-09T10:02:24;9.02;;;3.70;;
52284;SDS011;38238;53.304;6.606;2022-09-09T10:07:40;5.78;;;3.35;;
52284;SDS011;38238;53.304;6.606;2022-09-09T10:10:15;6.53;;;3.33;;
52284;SDS011;38238;53.304;6.606;2022-09-09T10:13:04;7.60;;;3.33;;
52284;SDS011;38238;53.304;6.606;2022-09-09T10:15:52;6.05;;;3.30;;
52284;SDS011;38238;53.304;6.606;2022-09-09T10:24:07;6.68;;;2.85;;
52284;SDS011;38238;53.304;6.606;2022-09-09T10:26:53;10.75;;;3.97;;
52284;SDS011;38238;53.304;6.606;2022-09-09T10:29:34;9.85;;;3.38;;
52284;SDS011;38238;53.304;6.606;2022-09-09T10:37:40;10.25;;;3.05;;
52284;SDS011;38238;53.304;6.606;2022-09-09T10:53:53;9.35;;;3.03;;
52284;SDS011;38238;53.304;6.606;2022-09-09T10:56:29;6.70;;;3.08;;
52284;SDS011;38238;53.304;6.606;2022-09-09T10:59:07;7.47;;;3.28;;
52284;SDS011;38238;53.304;6.606;2022-09-09T11:01:51;7.75;;;2.78;;
52284;SDS011;38238;53.304;6.606;2022-09-09T11:04:43;7.70;;;2.80;;
52284;SDS011;38238;53.304;6.606;2022-09-09T11:07:10;7.70;;;2.92;;
52284;SDS011;38238;53.304;6.606;2022-09-09T11:09:46;7.03;;;2.72;;
52284;SDS011;38238;53.304;6.606;2022-09-09T11:12:18;6.07;;;2.67;;
52284;SDS011;38238;53.304;6.606;2022-09-09T11:14:46;8.25;;;3.13;;
52284;SDS011;38238;53.304;6.606;2022-09-09T11:17:20;6.03;;;2.40;;
52284;SDS011;38238;53.304;6.606;2022-09-09T11:20:05;6.78;;;2.45;;
52284;SDS011;38238;53.304;6.606;2022-09-09T11:25:14;7.32;;;2.35;;
52284;SDS011;38238;53.304;6.606;2022-09-09T11:28:04;8.05;;;2.65;;
52284;SDS011;38238;53.304;6.606;2022-09-09T11:33:48;7.18;;;2.38;;
52284;SDS011;38238;53.304;6.606;2022-09-09T11:44:39;5.88;;;1.75;;
52284;SDS011;38238;53.304;6.606;2022-09-09T11:53:03;6.13;;;1.75;;
52284;SDS011;38238;53.304;6.606;2022-09-09T11:55:30;5.32;;;1.95;;
52284;SDS011;38238;53.304;6.606;2022-09-09T11:58:02;7.60;;;2.53;;
52284;SDS011;38238;53.304;6.606;2022-09-09T12:03:02;6.60;;;2.00;;
52284;SDS011;38238;53.304;6.606;2022-09-09T12:05:36;5.25;;;1.70;;
52284;SDS011;38238;53.304;6.606;2022-09-09T12:08:06;6.20;;;1.77;;
52284;SDS011;38238;53.304;6.606;2022-09-09T12:10:36;5.15;;;2.13;;
52284;SDS011;38238;53.304;6.606;2022-09-09T12:13:14;6.82;;;2.00;;
52284;SDS011;38238;53.304;6.606;2022-09-09T12:15:47;4.60;;;1.92;;
52284;SDS011;38238;53.304;6.606;2022-09-09T12:18:22;6.07;;;2.10;;
52284;SDS011;38238;53.304;6.606;2022-09-09T12:20:56;4.40;;;1.60;;
52284;SDS011;38238;53.304;6.606;2022-09-09T12:26:43;5.25;;;2.03;;
52284;SDS011;38238;53.304;6.606;2022-09-09T12:34:11;7.97;;;2.05;;
52284;SDS011;38238;53.304;6.606;2022-09-09T12:36:54;4.40;;;1.60;;
52284;SDS011;38238;53.304;6.606;2022-09-09T12:42:03;4.05;;;1.58;;
52284;SDS011;38238;53.304;6.606;2022-09-09T12:44:29;6.45;;;2.05;;
52284;SDS011;38238;53.304;6.606;2022-09-09T12:46:58;6.55;;;1.95;;
52284;SDS011;38238;53.304;6.606;2022-09-09T12:49:34;5.75;;;2.10;;
52284;SDS011;38238;53.304;6.606;2022-09-09T12:52:04;7.47;;;2.35;;
52284;SDS011;38238;53.304;6.606;2022-09-09T12:54:35;4.63;;;1.80;;
52284;SDS011;38238;53.304;6.606;2022-09-09T12:57:02;5.88;;;1.85;;
52284;SDS011;38238;53.304;6.606;2022-09-09T12:59:37;5.80;;;1.77;;
52284;SDS011;38238;53.304;6.606;2022-09-09T13:02:24;4.93;;;1.60;;
52284;SDS011;38238;53.304;6.606;2022-09-09T13:04:51;7.18;;;2.20;;
52284;SDS011;38238;53.304;6.606;2022-09-09T13:07:19;4.78;;;2.30;;
52284;SDS011;38238;53.304;6.606;2022-09-09T13:09:47;5.35;;;1.60;;
52284;SDS011;38238;53.304;6.606;2022-09-09T13:12:21;5.78;;;2.20;;
52284;SDS011;38238;53.304;6.606;2022-09-09T13:14:53;8.07;;;1.95;;
52284;SDS011;38238;53.304;6.606;2022-09-09T13:17:24;4.18;;;1.83;;
52284;SDS011;38238;53.304;6.606;2022-09-09T13:19:54;5.53;;;1.70;;
52284;SDS011;38238;53.304;6.606;2022-09-09T13:24:58;5.25;;;1.80;;
52284;SDS011;38238;53.304;6.606;2022-09-09T13:27:51;5.45;;;1.80;;
52284;SDS011;38238;53.304;6.606;2022-09-09T13:35:34;4.22;;;1.80;;
52284;SDS011;38238;53.304;6.606;2022-09-09T13:38:07;4.25;;;1.90;;
52284;SDS011;38238;53.304;6.606;2022-09-09T13:40:37;6.53;;;2.15;;
52284;SDS011;38238;53.304;6.606;2022-09-09T13:43:03;5.45;;;2.00;;
52284;SDS011;38238;53.304;6.606;2022-09-09T13:45:30;5.05;;;1.63;;
52284;SDS011;38238;53.304;6.606;2022-09-09T13:47:56;6.55;;;2.00;;
52284;SDS011;38238;53.304;6.606;2022-09-09T13:50:23;5.38;;;2.10;;
52284;SDS011;38238;53.304;6.606;2022-09-09T13:52:49;7.55;;;2.20;;
52284;SDS011;38238;53.304;6.606;2022-09-09T13:55:18;5.93;;;1.73;;
52284;SDS011;38238;53.304;6.606;2022-09-09T13:57:53;4.43;;;1.92;;
52284;SDS011;38238;53.304;6.606;2022-09-09T14:00:20;4.82;;;2.15;;
52284;SDS011;38238;53.304;6.606;2022-09-09T14:02:50;4.25;;;1.52;;
52284;SDS011;38238;53.304;6.606;2022-09-09T14:05:17;6.18;;;1.90;;
52284;SDS011;38238;53.304;6.606;2022-09-09T14:07:43;6.00;;;2.42;;
52284;SDS011;38238;53.304;6.606;2022-09-09T14:10:10;3.95;;;1.85;;
52284;SDS011;38238;53.304;6.606;2022-09-09T14:12:39;3.85;;;1.92;;
52284;SDS011;38238;53.304;6.606;2022-09-09T14:15:06;6.95;;;2.20;;
52284;SDS011;38238;53.304;6.606;2022-09-09T14:17:33;4.07;;;1.85;;
52284;SDS011;38238;53.304;6.606;2022-09-09T14:20:01;4.50;;;1.85;;
52284;SDS011;38238;53.304;6.606;2022-09-09T14:22:31;6.05;;;1.90;;
52284;SDS011;38238;53.304;6.606;2022-09-09T14:24:57;3.63;;;1.60;;
52284;SDS011;38238;53.304;6.606;2022-09-09T14:27:23;3.35;;;1.50;;
52284;SDS011;38238;53.304;6.606;2022-09-09T14:29:50;3.75;;;1.25;;
52284;SDS011;38238;53.304;6.606;2022-09-09T14:32:16;1.85;;;0.90;;
52284;SDS011;38238;53.304;6.606;2022-09-09T14:34:42;2.00;;;1.15;;
52284;SDS011;38238;53.304;6.606;2022-09-09T14:37:08;3.08;;;1.20;;
52284;SDS011;38238;53.304;6.606;2022-09-09T14:39:33;2.03;;;1.15;;
52284;SDS011;38238;53.304;6.606;2022-09-09T14:41:59;3.10;;;0.90;;
52284;SDS011;38238;53.304;6.606;2022-09-09T14:44:25;3.65;;;1.17;;
52284;SDS011;38238;53.304;6.606;2022-09-09T14:46:50;3.92;;;1.48;;
52284;SDS011;38238;53.304;6.606;2022-09-09T14:49:16;3.42;;;1.15;;
52284;SDS011;38238;53.304;6.606;2022-09-09T14:51:42;2.72;;;1.30;;
52284;SDS011;38238;53.304;6.606;2022-09-09T14:54:10;4.55;;;1.30;;
52284;SDS011;38238;53.304;6.606;2022-09-09T14:56:36;2.95;;;1.35;;
52284;SDS011;38238;53.304;6.606;2022-09-09T14:59:03;4.05;;;1.50;;
52284;SDS011;38238;53.304;6.606;2022-09-09T15:01:30;4.50;;;1.52;;
52284;SDS011;38238;53.304;6.606;2022-09-09T15:03:57;3.67;;;1.30;;
52284;SDS011;38238;53.304;6.606;2022-09-09T15:06:29;5.03;;;1.55;;
52284;SDS011;38238;53.304;6.606;2022-09-09T15:08:58;5.78;;;1.80;;
52284;SDS011;38238;53.304;6.606;2022-09-09T15:11:26;5.32;;;1.83;;
52284;SDS011;38238;53.304;6.606;2022-09-09T15:13:55;5.75;;;1.80;;
52284;SDS011;38238;53.304;6.606;2022-09-09T15:16:23;3.75;;;1.40;;
52284;SDS011;38238;53.304;6.606;2022-09-09T15:18:57;4.05;;;1.90;;
52284;SDS011;38238;53.304;6.606;2022-09-09T15:21:26;3.47;;;1.67;;
52284;SDS011;38238;53.304;6.606;2022-09-09T15:23:53;2.70;;;1.42;;
52284;SDS011;38238;53.304;6.606;2022-09-09T15:26:19;6.45;;;1.50;;
52284;SDS011;38238;53.304;6.606;2022-09-09T15:28:46;4.28;;;1.67;;
52284;SDS011;38238;53.304;6.606;2022-09-09T15:31:20;3.78;;;1.70;;
52284;SDS011;38238;53.304;6.606;2022-09-09T15:33:48;6.47;;;2.10;;
52284;SDS011;38238;53.304;6.606;2022-09-09T15:36:21;5.00;;;1.90;;
52284;SDS011;38238;53.304;6.606;2022-09-09T15:38:48;5.30;;;2.22;;
52284;SDS011;38238;53.304;6.606;2022-09-09T15:41:15;5.30;;;2.20;;
52284;SDS011;38238;53.304;6.606;2022-09-09T15:43:45;4.18;;;1.80;;
52284;SDS011;38238;53.304;6.606;2022-09-09T15:48:53;6.47;;;2.33;;
52284;SDS011;38238;53.304;6.606;2022-09-09T15:51:23;6.72;;;2.45;;
52284;SDS011;38238;53.304;6.606;2022-09-09T15:53:54;4.40;;;1.85;;
52284;SDS011;38238;53.304;6.606;2022-09-09T15:56:22;5.10;;;2.03;;
52284;SDS011;38238;53.304;6.606;2022-09-09T15:58:48;5.93;;;2.03;;
52284;SDS011;38238;53.304;6.606;2022-09-09T16:01:14;5.15;;;2.17;;
52284;SDS011;38238;53.304;6.606;2022-09-09T16:03:42;5.30;;;2.13;;
52284;SDS011;38238;53.304;6.606;2022-09-09T16:06:10;4.63;;;1.73;;
52284;SDS011;38238;53.304;6.606;2022-09-09T16:08:37;5.47;;;2.00;;
52284;SDS011;38238;53.304;6.606;2022-09-09T16:13:42;5.63;;;2.00;;
52284;SDS011;38238;53.304;6.606;2022-09-09T16:16:09;4.32;;;2.20;;
52284;SDS011;38238;53.304;6.606;2022-09-09T16:18:38;3.50;;;1.55;;
52284;SDS011;38238;53.304;6.606;2022-09-09T16:21:05;4.13;;;1.60;;
52284;SDS011;38238;53.304;6.606;2022-09-09T16:23:33;2.97;;;1.58;;
52284;SDS011;38238;53.304;6.606;2022-09-09T16:26:00;4.30;;;1.90;;
52284;SDS011;38238;53.304;6.606;2022-09-09T16:28:26;2.45;;;1.20;;
52284;SDS011;38238;53.304;6.606;2022-09-09T16:30:52;2.47;;;1.30;;
52284;SDS011;38238;53.304;6.606;2022-09-09T16:33:18;2.03;;;1.35;;
52284;SDS011;38238;53.304;6.606;2022-09-09T16:35:44;4.75;;;1.63;;
52284;SDS011;38238;53.304;6.606;2022-09-09T16:38:10;4.68;;;1.90;;
52284;SDS011;38238;53.304;6.606;2022-09-09T16:40:36;3.78;;;1.35;;
52284;SDS011;38238;53.304;6.606;2022-09-09T16:43:06;2.38;;;1.40;;
52284;SDS011;38238;53.304;6.606;2022-09-09T16:45:33;2.97;;;1.38;;
52284;SDS011;38238;53.304;6.606;2022-09-09T16:47:59;3.80;;;1.40;;
52284;SDS011;38238;53.304;6.606;2022-09-09T16:50:25;4.18;;;1.67;;
52284;SDS011;38238;53.304;6.606;2022-09-09T16:52:52;3.92;;;1.70;;
52284;SDS011;38238;53.304;6.606;2022-09-09T16:55:18;5.40;;;2.00;;
52284;SDS011;38238;53.304;6.606;2022-09-09T16:57:47;4.47;;;1.63;;
52284;SDS011;38238;53.304;6.606;2022-09-09T17:00:14;2.88;;;1.42;;
52284;SDS011;38238;53.304;6.606;2022-09-09T17:02:41;3.40;;;1.60;;
52284;SDS011;38238;53.304;6.606;2022-09-09T17:05:08;3.72;;;1.52;;
52284;SDS011;38238;53.304;6.606;2022-09-09T17:07:34;3.80;;;1.70;;
52284;SDS011;38238;53.304;6.606;2022-09-09T17:10:00;3.25;;;1.58;;